Terminal Aerodrome Forecast
Issued by NWS

Home | Current Version | Previous Version | Graphics & Text | Print | Product List | Glossary On
Versions: 1 2 3 4 5 6 7 8 9 10 11 12 13 14 15 16 17 18 19 20 21 22 23 24 25 26 27 28 29 30 31 32
000
FTUS43 KGRB 100311 AAA
TAFRHI
TAF AMD
KRHI 100311Z 1003/1024 29005KT P6SM -SHSN BKN035
     FM100500 28006KT P6SM -SHSN BKN030
     FM101100 28005KT P6SM SCT025
     FM101900 28006KT P6SM BKN020
     FM102100 27004KT P6SM BKN120=

USA.gov is the U.S. government's official web portal to all federal, state and local government web resources and services.